createdAt,value
2016-12-19T00:00:53.150Z,-1.42
2016-12-19T00:02:01.832Z,-1.35
2016-12-19T00:03:10.525Z,-1.38
2016-12-19T00:04:19.211Z,-1.4
2016-12-19T00:05:27.919Z,-1.3
2016-12-19T00:06:36.606Z,-1.3
2016-12-19T00:07:45.292Z,-1.22
2016-12-19T00:08:53.979Z,-1.09
2016-12-19T00:10:02.664Z,-1.18
2016-12-19T00:11:11.346Z,-1.03
2016-12-19T00:12:20.039Z,-0.93
2016-12-19T00:13:28.723Z,-0.96
2016-12-19T00:14:37.440Z,-0.97
2016-12-19T00:15:46.129Z,-0.97
2016-12-19T00:16:54.814Z,-1.01
2016-12-19T00:18:03.497Z,-0.89
2016-12-19T00:19:12.186Z,-0.82
2016-12-19T00:20:20.870Z,-0.81
2016-12-19T00:21:29.589Z,-0.7
2016-12-19T00:22:38.277Z,-0.94
2016-12-19T00:23:46.962Z,-0.85
2016-12-19T00:24:55.685Z,-0.85
2016-12-19T00:26:04.370Z,-0.85
2016-12-19T00:27:13.055Z,-0.87
2016-12-19T00:28:21.742Z,-1.01
2016-12-19T00:29:30.428Z,-1
2016-12-19T00:30:39.115Z,-0.97
2016-12-19T00:31:47.801Z,-0.97
2016-12-19T00:32:56.484Z,-1
2016-12-19T00:34:05.174Z,-0.96
2016-12-19T00:35:13.883Z,-1
2016-12-19T00:36:22.570Z,-0.89
2016-12-19T00:37:31.256Z,-0.81
2016-12-19T00:38:39.941Z,-0.77
2016-12-19T00:39:48.631Z,-0.78
2016-12-19T00:40:57.315Z,-0.7
2016-12-19T00:42:06.007Z,-0.77
2016-12-19T00:43:14.691Z,-0.74
2016-12-19T00:44:23.386Z,-0.78
2016-12-19T00:45:32.067Z,-0.72
2016-12-19T00:46:40.760Z,-0.75
2016-12-19T00:47:49.453Z,-0.72
2016-12-19T00:48:58.137Z,-0.81
2016-12-19T00:50:06.860Z,-0.84
2016-12-19T00:51:15.547Z,-0.99
2016-12-19T00:52:24.235Z,-0.97
2016-12-19T00:53:32.925Z,-0.85
2016-12-19T00:54:41.610Z,-0.97
2016-12-19T00:55:50.295Z,-1
2016-12-19T00:56:59.280Z,-1
2016-12-19T00:58:07.965Z,-0.94
2016-12-19T00:59:16.649Z,-0.97
2016-12-19T01:00:25.347Z,-0.89
2016-12-19T01:01:34.043Z,-0.89
2016-12-19T01:02:42.732Z,-0.99
2016-12-19T01:03:51.420Z,-0.94
2016-12-19T01:05:00.109Z,-0.89
2016-12-19T01:06:08.795Z,-0.96
2016-12-19T01:07:17.482Z,-0.84
2016-12-19T01:08:26.167Z,-0.87
2016-12-19T01:09:34.859Z,-0.8
2016-12-19T01:10:43.545Z,-0.93
2016-12-19T01:11:52.245Z,-0.85
2016-12-19T01:13:00.935Z,-0.87
2016-12-19T01:14:09.630Z,-0.78
2016-12-19T01:15:18.320Z,-0.94
2016-12-19T01:16:27.004Z,-0.85
2016-12-19T01:17:35.695Z,-0.89
2016-12-19T01:18:44.384Z,-0.77
2016-12-19T01:19:53.101Z,-0.78
2016-12-19T01:21:01.795Z,-0.78
2016-12-19T01:22:10.484Z,-0.74
2016-12-19T01:23:19.173Z,-0.77
2016-12-19T01:24:27.860Z,-0.8
2016-12-19T01:25:36.552Z,-0.75
2016-12-19T01:26:45.236Z,-0.75
2016-12-19T01:27:53.952Z,-0.87
2016-12-19T01:29:02.637Z,-0.84
2016-12-19T01:30:11.320Z,-0.82
2016-12-19T01:31:20.009Z,-0.74
2016-12-19T01:32:28.693Z,-0.77
2016-12-19T01:33:37.378Z,-0.78
2016-12-19T01:34:46.062Z,-0.72
2016-12-19T01:35:54.750Z,-0.81
2016-12-19T01:37:03.433Z,-0.84
2016-12-19T01:38:12.112Z,-0.81
2016-12-19T01:39:20.801Z,-0.78
2016-12-19T01:40:29.797Z,-0.87
2016-12-19T01:41:38.485Z,-0.91
2016-12-19T01:42:47.176Z,-0.89
2016-12-19T01:43:55.859Z,-0.93
2016-12-19T01:45:04.550Z,-0.91
2016-12-19T01:46:13.240Z,-0.85
2016-12-19T01:47:21.929Z,-0.75
2016-12-19T01:48:30.617Z,-0.72
2016-12-19T01:49:39.311Z,-0.74
2016-12-19T01:50:48.030Z,-0.74
2016-12-19T01:51:56.718Z,-0.7
2016-12-19T01:53:05.410Z,-0.74
2016-12-19T01:54:14.104Z,-0.75
2016-12-19T01:55:22.789Z,-0.74
2016-12-19T01:56:31.488Z,-0.72
2016-12-19T01:57:40.183Z,-0.78
2016-12-19T01:58:48.872Z,-0.75
2016-12-19T01:59:57.558Z,-0.72
2016-12-19T02:01:06.254Z,-0.74
2016-12-19T02:02:14.936Z,-0.69
2016-12-19T02:03:23.618Z,-0.74
2016-12-19T02:04:32.306Z,-0.7
2016-12-19T02:05:40.997Z,-0.7
2016-12-19T02:06:49.681Z,-0.74
2016-12-19T02:07:58.362Z,-0.8
2016-12-19T02:09:07.055Z,-0.7
2016-12-19T02:10:15.750Z,-0.77
2016-12-19T02:11:24.463Z,-0.78
2016-12-19T02:12:33.155Z,-0.81
2016-12-19T02:13:41.837Z,-0.8
2016-12-19T02:14:50.527Z,-0.75
2016-12-19T02:15:59.216Z,-0.93
2016-12-19T02:17:07.900Z,-0.87
2016-12-19T02:18:16.592Z,-0.84
2016-12-19T02:19:25.280Z,-0.82
2016-12-19T02:20:33.968Z,-0.78
2016-12-19T02:21:42.651Z,-0.7
2016-12-19T02:22:51.338Z,-0.72
2016-12-19T02:24:00.026Z,-0.67
2016-12-19T02:25:08.717Z,-0.69
2016-12-19T02:26:17.404Z,-0.6
2016-12-19T02:27:26.092Z,-0.62
2016-12-19T02:28:34.826Z,-0.51
2016-12-19T02:29:43.509Z,-0.66
2016-12-19T02:30:52.192Z,-0.56
2016-12-19T02:32:00.878Z,-0.6
2016-12-19T02:33:09.567Z,-0.59
2016-12-19T02:34:18.572Z,-0.69
2016-12-19T02:35:27.260Z,-0.75
2016-12-19T02:36:35.948Z,-0.7
2016-12-19T02:37:44.640Z,-0.8
2016-12-19T02:38:53.328Z,-0.77
2016-12-19T02:40:02.014Z,-0.78
2016-12-19T02:41:10.702Z,-0.85
2016-12-19T02:42:19.388Z,-0.94
2016-12-19T02:43:28.071Z,-1
2016-12-19T02:44:36.756Z,-0.97
2016-12-19T02:45:45.439Z,-0.99
2016-12-19T02:46:54.125Z,-1.04
2016-12-19T02:48:02.816Z,-1.06
2016-12-19T02:49:11.502Z,-1.07
2016-12-19T02:50:20.195Z,-1.14
2016-12-19T02:51:28.883Z,-1.11
2016-12-19T02:52:37.573Z,-1.21
2016-12-19T02:53:46.254Z,-1.11
2016-12-19T02:54:54.945Z,-1.15
2016-12-19T02:56:03.630Z,-1.11
2016-12-19T02:57:12.314Z,-1.14
2016-12-19T02:58:21.010Z,-1.01
2016-12-19T02:59:29.695Z,-0.87
2016-12-19T03:00:38.390Z,-0.87
2016-12-19T03:01:47.089Z,-0.87
2016-12-19T03:02:55.780Z,-0.8
2016-12-19T03:04:04.464Z,-0.75
2016-12-19T03:05:13.156Z,-0.75
2016-12-19T03:06:21.839Z,-0.74
2016-12-19T03:07:30.523Z,-0.63
2016-12-19T03:08:39.211Z,-0.72
2016-12-19T03:09:47.900Z,-0.63
2016-12-19T03:10:56.588Z,-0.62
2016-12-19T03:12:05.288Z,-0.7
2016-12-19T03:13:13.971Z,-0.67
2016-12-19T03:14:22.660Z,-0.69
2016-12-19T03:15:31.348Z,-0.7
2016-12-19T03:16:40.038Z,-0.78
2016-12-19T03:17:48.726Z,-0.89
2016-12-19T03:18:57.417Z,-0.78
2016-12-19T03:20:06.104Z,-0.72
2016-12-19T03:21:14.796Z,-0.8
2016-12-19T03:22:23.485Z,-0.77
2016-12-19T03:23:32.197Z,-0.77
2016-12-19T03:24:40.915Z,-0.85
2016-12-19T03:25:49.616Z,-1
2016-12-19T03:26:58.304Z,-0.97
2016-12-19T03:28:06.995Z,-0.96
2016-12-19T03:29:15.682Z,-0.93
2016-12-19T03:30:24.370Z,-1.01
2016-12-19T03:31:33.062Z,-1.03
2016-12-19T03:32:41.781Z,-0.96
2016-12-19T03:33:50.464Z,-0.91
2016-12-19T03:34:59.155Z,-0.99
2016-12-19T03:36:07.846Z,-0.97
2016-12-19T03:37:16.530Z,-0.96
2016-12-19T03:38:25.221Z,-1.01
2016-12-19T03:39:33.911Z,-0.99
2016-12-19T03:40:42.931Z,-0.99
2016-12-19T03:41:51.613Z,-0.94
2016-12-19T03:43:00.298Z,-1.01
2016-12-19T03:44:08.985Z,-1
2016-12-19T03:45:17.996Z,-0.94
2016-12-19T03:46:26.678Z,-0.99
2016-12-19T03:47:35.370Z,-1.03
2016-12-19T03:48:44.059Z,-1.01
2016-12-19T03:49:52.752Z,-1.19
2016-12-19T03:51:01.443Z,-1.11
2016-12-19T03:52:10.127Z,-1.15
2016-12-19T03:53:18.810Z,-1.12
2016-12-19T03:54:27.603Z,-1.19
2016-12-19T03:55:36.299Z,-1.19
2016-12-19T03:56:45.004Z,-1.25
2016-12-19T03:57:53.692Z,-1.38
2016-12-19T03:59:02.376Z,-1.36
2016-12-19T04:00:11.071Z,-1.46
2016-12-19T04:01:19.758Z,-1.43
2016-12-19T04:02:28.458Z,-1.42
2016-12-19T04:03:37.143Z,-1.53
2016-12-19T04:04:45.829Z,-1.58
2016-12-19T04:05:54.513Z,-1.63
2016-12-19T04:07:03.202Z,-1.68
2016-12-19T04:08:11.887Z,-1.63
2016-12-19T04:09:20.579Z,-1.79
2016-12-19T04:10:29.263Z,-1.84
2016-12-19T04:11:37.957Z,-1.75
2016-12-19T04:12:46.645Z,-1.75
2016-12-19T04:13:55.331Z,-1.81
2016-12-19T04:15:04.023Z,-1.81
2016-12-19T04:16:12.740Z,-1.74
2016-12-19T04:17:21.424Z,-1.69
2016-12-19T04:18:30.436Z,-1.68
2016-12-19T04:19:39.135Z,-1.61
2016-12-19T04:20:48.141Z,-1.64
2016-12-19T04:21:56.827Z,-1.54
2016-12-19T04:23:05.511Z,-1.53
2016-12-19T04:24:14.194Z,-1.58
2016-12-19T04:25:22.881Z,-1.53
2016-12-19T04:26:31.573Z,-1.51
2016-12-19T04:27:40.259Z,-1.54
2016-12-19T04:28:49.255Z,-1.45
2016-12-19T04:29:57.940Z,-1.51
2016-12-19T04:31:06.632Z,-1.51
2016-12-19T04:32:15.321Z,-1.51
2016-12-19T04:33:24.013Z,-1.54
2016-12-19T04:34:32.736Z,-1.48
2016-12-19T04:35:41.450Z,-1.61
2016-12-19T04:36:50.132Z,-1.63
2016-12-19T04:37:58.823Z,-1.68
2016-12-19T04:39:07.511Z,-1.63
2016-12-19T04:40:16.231Z,-1.78
2016-12-19T04:41:24.918Z,-1.74
2016-12-19T04:42:33.932Z,-1.74
2016-12-19T04:43:42.616Z,-1.66
2016-12-19T04:44:51.301Z,-1.64
2016-12-19T04:45:59.987Z,-1.71
2016-12-19T04:47:08.674Z,-1.64
2016-12-19T04:48:17.363Z,-1.64
2016-12-19T04:49:26.082Z,-1.68
2016-12-19T04:50:34.765Z,-1.72
2016-12-19T04:51:43.458Z,-1.69
2016-12-19T04:52:52.143Z,-1.81
2016-12-19T04:54:00.836Z,-1.76
2016-12-19T04:55:09.520Z,-1.76
2016-12-19T04:56:18.263Z,-1.78
2016-12-19T04:57:26.952Z,-1.75
2016-12-19T04:58:35.643Z,-1.68
2016-12-19T04:59:44.326Z,-1.64
2016-12-19T05:00:53.016Z,-1.68
2016-12-19T05:02:01.700Z,-1.68
2016-12-19T05:03:10.384Z,-1.74
2016-12-19T05:04:19.069Z,-1.66
2016-12-19T05:05:27.749Z,-1.74
2016-12-19T05:06:36.443Z,-1.69
2016-12-19T05:07:45.132Z,-1.74
2016-12-19T05:08:53.814Z,-1.66
2016-12-19T05:10:02.503Z,-1.78
2016-12-19T05:11:11.192Z,-1.81
2016-12-19T05:12:20.187Z,-1.72
2016-12-19T05:13:28.873Z,-1.76
2016-12-19T05:14:37.564Z,-1.82
2016-12-19T05:15:46.246Z,-1.66
2016-12-19T05:16:54.940Z,-1.63
2016-12-19T05:18:03.626Z,-1.66
2016-12-19T05:19:12.324Z,-1.68
2016-12-19T05:20:21.009Z,-1.66
2016-12-19T05:21:29.696Z,-1.68
2016-12-19T05:22:38.389Z,-1.76
2016-12-19T05:23:47.071Z,-1.79
2016-12-19T05:24:55.759Z,-1.81
2016-12-19T05:26:04.446Z,-1.87
2016-12-19T05:27:13.132Z,-1.86
2016-12-19T05:28:21.817Z,-1.89
2016-12-19T05:29:30.510Z,-1.92
2016-12-19T05:30:39.223Z,-1.92
2016-12-19T05:31:47.907Z,-2.04
2016-12-19T05:32:56.588Z,-1.96
2016-12-19T05:34:05.593Z,-2
2016-12-19T05:35:14.280Z,-1.93
2016-12-19T05:36:22.964Z,-1.92
2016-12-19T05:37:31.648Z,-1.97
2016-12-19T05:38:40.336Z,-1.97
2016-12-19T05:39:49.347Z,-1.87
2016-12-19T05:40:58.041Z,-1.9
2016-12-19T05:42:07.049Z,-1.81
2016-12-19T05:43:15.736Z,-1.78
2016-12-19T05:44:24.423Z,-1.82
2016-12-19T05:45:33.109Z,-1.76
2016-12-19T05:46:41.794Z,-1.81
2016-12-19T05:47:50.506Z,-1.78
2016-12-19T05:48:59.509Z,-1.71
2016-12-19T05:50:08.197Z,-1.72
2016-12-19T05:51:16.879Z,-1.74
2016-12-19T05:52:25.568Z,-1.75
2016-12-19T05:53:34.259Z,-1.86
2016-12-19T05:54:42.942Z,-1.81
2016-12-19T05:55:51.629Z,-1.81
2016-12-19T05:57:00.316Z,-1.82
2016-12-19T05:58:09.003Z,-1.87
2016-12-19T05:59:17.691Z,-1.94
2016-12-19T06:00:26.382Z,-1.94
2016-12-19T06:01:35.067Z,-1.94
2016-12-19T06:02:43.751Z,-1.94
2016-12-19T06:03:52.438Z,-1.92
2016-12-19T06:05:01.124Z,-1.96
2016-12-19T06:06:09.810Z,-1.96
2016-12-19T06:07:18.522Z,-1.87
2016-12-19T06:08:27.240Z,-1.87
2016-12-19T06:09:35.928Z,-1.92
2016-12-19T06:10:44.614Z,-1.97
2016-12-19T06:11:53.643Z,-1.9
2016-12-19T06:13:02.333Z,-1.93
2016-12-19T06:14:11.023Z,-1.92
2016-12-19T06:15:19.710Z,-1.9
2016-12-19T06:16:28.403Z,-1.86
2016-12-19T06:17:37.091Z,-1.9
2016-12-19T06:18:45.776Z,-1.9
2016-12-19T06:19:54.462Z,-1.89
2016-12-19T06:21:03.153Z,-1.92
2016-12-19T06:22:11.840Z,-1.89
2016-12-19T06:23:20.529Z,-1.82
2016-12-19T06:24:29.213Z,-1.9
2016-12-19T06:25:37.901Z,-1.9
2016-12-19T06:26:46.592Z,-1.79
2016-12-19T06:27:55.601Z,-1.79
2016-12-19T06:29:04.291Z,-1.64
2016-12-19T06:30:12.980Z,-1.74
2016-12-19T06:31:21.659Z,-1.66
2016-12-19T06:32:30.345Z,-1.64
2016-12-19T06:33:39.031Z,-1.66
2016-12-19T06:34:47.731Z,-1.66
2016-12-19T06:35:56.422Z,-1.6
2016-12-19T06:37:05.107Z,-1.64
2016-12-19T06:38:13.801Z,-1.6
2016-12-19T06:39:22.481Z,-1.57
2016-12-19T06:40:31.169Z,-1.57
2016-12-19T06:41:39.864Z,-1.48
2016-12-19T06:42:48.549Z,-1.5
2016-12-19T06:43:57.235Z,-1.48
2016-12-19T06:45:05.923Z,-1.5
2016-12-19T06:46:14.605Z,-1.61
2016-12-19T06:47:23.291Z,-1.61
2016-12-19T06:48:32.005Z,-1.6
2016-12-19T06:49:40.695Z,-1.68
2016-12-19T06:50:49.384Z,-1.63
2016-12-19T06:51:58.104Z,-1.68
2016-12-19T06:53:06.787Z,-1.64
2016-12-19T06:54:15.480Z,-1.63
2016-12-19T06:55:24.166Z,-1.64
2016-12-19T06:56:32.884Z,-1.64
2016-12-19T06:57:41.600Z,-1.54
2016-12-19T06:58:50.283Z,-1.53
2016-12-19T06:59:58.969Z,-1.46
2016-12-19T07:01:07.657Z,-1.48
2016-12-19T07:02:16.345Z,-1.46
2016-12-19T07:03:25.343Z,-1.46
2016-12-19T07:04:34.084Z,-1.57
2016-12-19T07:05:42.877Z,-1.46
2016-12-19T07:06:51.984Z,-1.51
2016-12-19T07:08:00.721Z,-1.45
2016-12-19T07:09:09.411Z,-1.43
2016-12-19T07:10:18.124Z,-1.54
2016-12-19T07:11:26.821Z,-1.38
2016-12-19T07:12:35.514Z,-1.53
2016-12-19T07:13:44.196Z,-1.46
2016-12-19T07:14:52.895Z,-1.35
2016-12-19T07:16:01.581Z,-1.46
2016-12-19T07:17:10.321Z,-1.38
2016-12-19T07:18:19.027Z,-1.38
2016-12-19T07:19:27.709Z,-1.36
2016-12-19T07:20:36.443Z,-1.27
2016-12-19T07:21:45.131Z,-1.27
2016-12-19T07:22:53.818Z,-1.32
2016-12-19T07:24:02.507Z,-1.33
2016-12-19T07:25:11.195Z,-1.22
2016-12-19T07:26:19.877Z,-1.24
2016-12-19T07:27:28.570Z,-1.21
2016-12-19T07:28:37.263Z,-1.24
2016-12-19T07:29:45.951Z,-1.17
2016-12-19T07:30:54.635Z,-1.18
2016-12-19T07:32:03.324Z,-1.17
2016-12-19T07:33:12.012Z,-1.19
2016-12-19T07:34:20.700Z,-1.17
2016-12-19T07:35:29.390Z,-1.14
2016-12-19T07:36:38.074Z,-1.09
2016-12-19T07:37:46.766Z,-1.07
2016-12-19T07:38:55.451Z,-1.07
2016-12-19T07:40:04.140Z,-1.03
2016-12-19T07:41:12.827Z,-0.93
2016-12-19T07:42:21.515Z,-1
2016-12-19T07:43:30.208Z,-0.89
2016-12-19T07:44:39.213Z,-0.91
2016-12-19T07:45:47.900Z,-0.81
2016-12-19T07:46:56.585Z,-0.74
2016-12-19T07:48:05.272Z,-0.72
2016-12-19T07:49:13.958Z,-0.67
2016-12-19T07:50:22.647Z,-0.77
2016-12-19T07:51:31.350Z,-0.77
2016-12-19T07:52:40.041Z,-0.72
2016-12-19T07:53:48.727Z,-0.72
2016-12-19T07:54:57.415Z,-0.72
2016-12-19T07:56:06.101Z,-0.72
2016-12-19T07:57:14.816Z,-0.72
2016-12-19T07:58:23.502Z,-0.74
2016-12-19T07:59:32.192Z,-0.74
2016-12-19T08:00:40.878Z,-0.74
2016-12-19T08:01:49.564Z,-0.74
2016-12-19T08:02:58.252Z,-0.75
2016-12-19T08:04:06.978Z,-0.93
2016-12-19T08:05:15.665Z,-0.84
2016-12-19T08:06:24.351Z,-0.89
2016-12-19T08:07:33.046Z,-0.82
2016-12-19T08:08:41.732Z,-0.85
2016-12-19T08:09:50.421Z,-0.93
2016-12-19T08:10:59.104Z,-0.89
2016-12-19T08:12:07.798Z,-0.87
2016-12-19T08:13:16.484Z,-0.89
2016-12-19T08:14:25.168Z,-0.87
2016-12-19T08:15:33.857Z,-0.77
2016-12-19T08:16:42.546Z,-0.84
2016-12-19T08:17:51.247Z,-0.72
2016-12-19T08:18:59.935Z,-0.81
2016-12-19T08:20:08.626Z,-0.74
2016-12-19T08:21:17.319Z,-0.93
2016-12-19T08:22:26.007Z,-0.94
2016-12-19T08:23:34.746Z,-0.81
2016-12-19T08:24:43.438Z,-0.84
2016-12-19T08:25:52.128Z,-0.85
2016-12-19T08:27:00.831Z,-0.84
2016-12-19T08:28:09.522Z,-0.87
2016-12-19T08:29:18.209Z,-0.87
2016-12-19T08:30:26.898Z,-0.91
2016-12-19T08:31:35.589Z,-0.81
2016-12-19T08:32:44.287Z,-0.72
2016-12-19T08:33:52.970Z,-0.91
2016-12-19T08:35:01.662Z,-0.81
2016-12-19T08:36:10.666Z,-0.85
2016-12-19T08:37:19.354Z,-0.84
2016-12-19T08:38:28.044Z,-0.87
2016-12-19T08:39:36.731Z,-0.84
2016-12-19T08:40:45.420Z,-0.89
2016-12-19T08:41:54.109Z,-0.85
2016-12-19T08:43:02.796Z,-0.93
2016-12-19T08:44:11.486Z,-0.93
2016-12-19T08:45:20.174Z,-0.82
2016-12-19T08:46:28.863Z,-0.91
2016-12-19T08:47:37.551Z,-0.94
2016-12-19T08:48:46.238Z,-0.87
2016-12-19T08:49:54.923Z,-0.84
2016-12-19T08:51:03.613Z,-0.91
2016-12-19T08:52:12.308Z,-0.91
2016-12-19T08:53:20.992Z,-0.81
2016-12-19T08:54:29.676Z,-0.89
2016-12-19T08:55:38.402Z,-0.91
2016-12-19T08:56:47.419Z,-0.77
2016-12-19T08:57:56.111Z,-0.77
2016-12-19T08:59:04.804Z,-0.75
2016-12-19T09:00:13.489Z,-0.77
2016-12-19T09:01:22.174Z,-0.69
2016-12-19T09:02:30.906Z,-0.74
2016-12-19T09:03:39.599Z,-0.66
2016-12-19T09:04:48.286Z,-0.59
2016-12-19T09:05:56.967Z,-0.54
2016-12-19T09:07:05.656Z,-0.54
2016-12-19T09:08:14.344Z,-0.59
2016-12-19T09:09:23.034Z,-0.57
2016-12-19T09:10:31.725Z,-0.57
2016-12-19T09:11:40.427Z,-0.49
2016-12-19T09:12:49.116Z,-0.46
2016-12-19T09:13:57.807Z,-0.46
2016-12-19T09:15:06.507Z,-0.45
2016-12-19T09:16:15.197Z,-0.42
2016-12-19T09:17:23.881Z,-0.44
2016-12-19T09:18:32.567Z,-0.3
2016-12-19T09:19:41.255Z,-0.28
2016-12-19T09:20:49.944Z,-0.26
2016-12-19T09:21:58.628Z,-0.18
2016-12-19T09:23:07.642Z,-0.17
2016-12-19T09:24:16.335Z,-0.13
2016-12-19T09:25:25.021Z,-0.12
2016-12-19T09:26:33.717Z,-0.15
2016-12-19T09:27:42.404Z,-0.12
2016-12-19T09:28:51.095Z,-0.05
2016-12-19T09:29:59.812Z,-0.05
2016-12-19T09:31:08.498Z,-0.05
2016-12-19T09:32:17.184Z,0.01
2016-12-19T09:33:25.870Z,0
2016-12-19T09:34:34.591Z,-0.03
2016-12-19T09:35:43.276Z,-0.03
2016-12-19T09:36:51.964Z,0.02
2016-12-19T09:38:00.649Z,-0.05
2016-12-19T09:39:09.349Z,0.01
2016-12-19T09:40:18.036Z,0.11
2016-12-19T09:41:26.729Z,0.11
2016-12-19T09:42:35.422Z,0.18
2016-12-19T09:43:44.111Z,0.18
2016-12-19T09:44:53.109Z,0.26
2016-12-19T09:46:02.127Z,0.24
2016-12-19T09:47:10.815Z,0.23
2016-12-19T09:48:19.507Z,0.2
2016-12-19T09:49:28.199Z,0.24
2016-12-19T09:50:36.888Z,0.19
2016-12-19T09:51:45.575Z,0.16
2016-12-19T09:52:54.575Z,0.09
2016-12-19T09:54:03.287Z,0.05
2016-12-19T09:55:11.974Z,-0.02
2016-12-19T09:56:20.693Z,-0.03
2016-12-19T09:57:29.385Z,-0.03
2016-12-19T09:58:38.072Z,-0.1
2016-12-19T09:59:46.757Z,-0.13
2016-12-19T10:00:55.470Z,-0.17
2016-12-19T10:02:04.152Z,-0.18
2016-12-19T10:03:12.851Z,-0.18
2016-12-19T10:04:21.538Z,-0.21
2016-12-19T10:05:30.231Z,-0.27
2016-12-19T10:06:38.927Z,-0.31
2016-12-19T10:07:47.642Z,-0.28
2016-12-19T10:08:56.682Z,-0.27
2016-12-19T10:10:05.404Z,-0.28
2016-12-19T10:11:14.100Z,-0.24
2016-12-19T10:12:22.788Z,-0.31
2016-12-19T10:13:31.473Z,-0.28
2016-12-19T10:14:40.167Z,-0.23
2016-12-19T10:15:48.853Z,-0.28
2016-12-19T10:16:57.542Z,-0.3
2016-12-19T10:18:06.245Z,-0.28
2016-12-19T10:19:14.964Z,-0.2
2016-12-19T10:20:23.651Z,-0.2
2016-12-19T10:21:32.341Z,-0.13
2016-12-19T10:22:41.026Z,-0.21
2016-12-19T10:23:50.773Z,-0.17
2016-12-19T10:24:59.460Z,-0.2
2016-12-19T10:26:08.179Z,-0.24
2016-12-19T10:27:16.866Z,-0.23
2016-12-19T10:28:25.552Z,-0.33
2016-12-19T10:29:34.287Z,-0.31
2016-12-19T10:30:42.973Z,-0.28
2016-12-19T10:31:51.658Z,-0.31
2016-12-19T10:33:00.352Z,-0.27
2016-12-19T10:34:09.042Z,-0.31
2016-12-19T10:35:17.729Z,-0.35
2016-12-19T10:36:26.413Z,-0.36
2016-12-19T10:37:35.104Z,-0.3
2016-12-19T10:38:43.795Z,-0.28
2016-12-19T10:39:52.483Z,-0.31
2016-12-19T10:41:01.170Z,-0.36
2016-12-19T10:42:09.857Z,-0.2
2016-12-19T10:43:18.542Z,-0.15
2016-12-19T10:44:27.248Z,-0.13
2016-12-19T10:45:35.930Z,-0.13
2016-12-19T10:46:44.713Z,-0.13
2016-12-19T10:47:53.405Z,-0.13
2016-12-19T10:49:02.099Z,-0.05
2016-12-19T10:50:10.783Z,-0.13
2016-12-19T10:51:19.468Z,-0.05
2016-12-19T10:52:28.156Z,-0.06
2016-12-19T10:53:36.840Z,-0.06
2016-12-19T10:54:45.528Z,-0.09
2016-12-19T10:55:54.213Z,-0.02
2016-12-19T10:57:02.897Z,0
2016-12-19T10:58:11.589Z,0
2016-12-19T10:59:20.282Z,0.12
2016-12-19T11:00:28.977Z,0.05
2016-12-19T11:01:37.665Z,0.08
2016-12-19T11:02:46.351Z,0.02
2016-12-19T11:05:25.754Z,0.06
2016-12-19T11:06:34.465Z,0.05
2016-12-19T11:07:43.162Z,0.06
2016-12-19T11:08:51.851Z,0.06
2016-12-19T11:10:00.887Z,0
2016-12-19T11:11:09.587Z,-0.03
2016-12-19T11:12:18.275Z,0.01
2016-12-19T11:13:26.976Z,0.02
2016-12-19T11:14:35.711Z,0.08
2016-12-19T11:15:44.396Z,0.06
2016-12-19T11:16:53.086Z,-0.03
2016-12-19T11:18:01.779Z,-0.03
2016-12-19T11:19:10.470Z,-0.02
2016-12-19T11:20:19.206Z,0.01
2016-12-19T11:21:27.893Z,0.06
2016-12-19T11:22:36.582Z,0.08
2016-12-19T11:23:45.270Z,0.01
2016-12-19T11:24:53.961Z,0.01
2016-12-19T11:26:03.124Z,0.01
2016-12-19T11:27:12.007Z,0.06
2016-12-19T11:28:20.695Z,0.02
2016-12-19T11:29:29.384Z,0.08
2016-12-19T11:30:38.072Z,0.09
2016-12-19T11:31:46.816Z,0.12
2016-12-19T11:32:55.538Z,0.18
2016-12-19T11:34:04.234Z,0.19
2016-12-19T11:35:12.926Z,0.16
2016-12-19T11:36:21.616Z,0.19
2016-12-19T11:37:30.358Z,0.18
2016-12-19T11:38:39.048Z,0.08
2016-12-19T11:39:47.740Z,0.08
2016-12-19T11:40:56.432Z,0.08
2016-12-19T11:42:05.138Z,0.09
2016-12-19T11:43:13.880Z,0.06
2016-12-19T11:44:22.572Z,0.13
2016-12-19T11:45:31.265Z,0.09
2016-12-19T11:46:39.953Z,0.08
2016-12-19T11:47:48.646Z,0.12
2016-12-19T11:48:57.385Z,0.02
2016-12-19T11:50:06.073Z,-0.02
2016-12-19T11:51:14.760Z,0.01
2016-12-19T11:52:23.450Z,0.08
2016-12-19T11:53:32.146Z,0
2016-12-19T11:54:40.884Z,0.11
2016-12-19T11:55:49.605Z,0.06
2016-12-19T11:56:58.292Z,0.09
2016-12-19T11:58:06.984Z,0.11
2016-12-19T11:59:15.670Z,0.01
2016-12-19T12:00:24.421Z,0.02
2016-12-19T12:01:33.109Z,0.05
2016-12-19T12:02:41.795Z,0
2016-12-19T12:03:50.487Z,0.09
2016-12-19T12:04:59.181Z,0.08
2016-12-19T12:06:07.924Z,0.05
2016-12-19T12:07:16.618Z,0.19
2016-12-19T12:08:25.308Z,0.12
2016-12-19T12:09:33.999Z,0.19
2016-12-19T12:10:42.687Z,0.3
2016-12-19T12:11:51.375Z,0.34
2016-12-19T12:13:00.064Z,0.36
2016-12-19T12:14:08.761Z,0.29
2016-12-19T12:15:17.488Z,0.3
2016-12-19T12:16:26.179Z,0.33
2016-12-19T12:17:34.869Z,0.34
2016-12-19T12:18:43.589Z,0.33
2016-12-19T12:19:52.274Z,0.24
2016-12-19T12:21:00.967Z,0.23
2016-12-19T12:22:09.689Z,0.13
2016-12-19T12:23:18.379Z,0.2
2016-12-19T12:24:27.067Z,0.15
2016-12-19T12:25:35.753Z,0.11
2016-12-19T12:26:44.470Z,0.06
2016-12-19T12:27:53.194Z,0.11
2016-12-19T12:29:01.886Z,0.08
2016-12-19T12:30:10.580Z,0.09
2016-12-19T12:31:19.280Z,-0.03
2016-12-19T12:32:27.972Z,-0.07
2016-12-19T12:33:36.661Z,-0.05
2016-12-19T12:34:45.348Z,-0.09
2016-12-19T12:35:54.043Z,-0.05
2016-12-19T12:37:02.735Z,-0.1
2016-12-19T12:38:11.434Z,-0.05
2016-12-19T12:39:20.452Z,-0.06
2016-12-19T12:40:29.145Z,-0.07
2016-12-19T12:41:37.835Z,-0.12
2016-12-19T12:42:46.521Z,-0.09
2016-12-19T12:43:55.216Z,-0.1
2016-12-19T12:45:03.908Z,-0.07
2016-12-19T12:46:12.601Z,-0.05
2016-12-19T12:47:21.291Z,-0.1
2016-12-19T12:48:30.300Z,-0.13
2016-12-19T12:49:38.991Z,-0.12
2016-12-19T12:50:47.718Z,-0.06
2016-12-19T12:51:56.412Z,-0.05
2016-12-19T12:53:05.100Z,-0.12
2016-12-19T12:54:13.789Z,-0.17
2016-12-19T12:55:22.487Z,-0.05
2016-12-19T12:56:31.179Z,0.08
2016-12-19T12:57:39.864Z,0.06
2016-12-19T12:58:48.545Z,-0.06
2016-12-19T12:59:57.231Z,0.09
2016-12-19T13:01:05.929Z,0.18
2016-12-19T13:02:14.937Z,0.18
2016-12-19T13:03:23.624Z,0.27
2016-12-19T13:04:32.312Z,0.3
2016-12-19T13:05:40.998Z,0.15
2016-12-19T13:06:49.693Z,0.19
2016-12-19T13:07:58.398Z,0.23
2016-12-19T13:09:07.090Z,0.26
2016-12-19T13:10:15.781Z,0.29
2016-12-19T13:11:24.787Z,0.29
2016-12-19T13:12:33.477Z,0.3
2016-12-19T13:13:42.172Z,0.29
2016-12-19T13:14:50.866Z,0.3
2016-12-19T13:15:59.555Z,0.33
2016-12-19T13:17:08.247Z,0.31
2016-12-19T13:18:16.936Z,0.36
2016-12-19T13:19:25.660Z,0.29
2016-12-19T13:20:34.358Z,0.23
2016-12-19T13:21:43.047Z,0.23
2016-12-19T13:22:51.802Z,0.2
2016-12-19T13:24:00.491Z,0.18
2016-12-19T13:25:09.182Z,0.06
2016-12-19T13:26:17.867Z,0.16
2016-12-19T13:27:26.560Z,0.06
2016-12-19T13:28:35.252Z,0.06
2016-12-19T13:29:43.943Z,0.02
2016-12-19T13:30:52.631Z,0.02
2016-12-19T13:32:01.322Z,0.02
2016-12-19T13:33:10.012Z,0
2016-12-19T13:34:18.704Z,-0.05
2016-12-19T13:35:27.397Z,-0.1
2016-12-19T13:36:36.087Z,-0.03
2016-12-19T13:37:44.774Z,-0.05
2016-12-19T13:38:53.462Z,-0.15
2016-12-19T13:40:02.154Z,-0.17
2016-12-19T13:41:10.845Z,-0.1
2016-12-19T13:42:19.536Z,-0.12
2016-12-19T13:43:28.227Z,-0.15
2016-12-19T13:44:36.916Z,-0.06
2016-12-19T13:45:45.605Z,-0.13
2016-12-19T13:46:54.291Z,-0.09
2016-12-19T13:48:05.273Z,-0.12
2016-12-19T13:49:14.329Z,-0.15
2016-12-19T13:50:23.306Z,-0.21
2016-12-19T13:51:32.335Z,-0.09
2016-12-19T13:52:41.028Z,-0.13
2016-12-19T13:53:49.717Z,-0.2
2016-12-19T13:54:58.455Z,-0.2
2016-12-19T13:56:07.145Z,-0.2
2016-12-19T13:57:15.838Z,-0.21
2016-12-19T13:58:24.893Z,-0.17
2016-12-19T13:59:33.590Z,-0.21
2016-12-19T14:00:42.285Z,-0.21
2016-12-19T14:01:50.981Z,-0.21
2016-12-19T14:02:59.671Z,-0.17
2016-12-19T14:04:08.362Z,-0.21
2016-12-19T14:05:17.370Z,-0.21
2016-12-19T14:06:26.058Z,-0.21
2016-12-19T14:07:34.748Z,-0.21
2016-12-19T14:08:43.442Z,-0.17
2016-12-19T14:09:52.128Z,-0.21
2016-12-19T14:11:00.826Z,-0.12
2016-12-19T14:12:09.515Z,-0.09
2016-12-19T14:13:18.199Z,-0.12
2016-12-19T14:14:26.897Z,-0.09
2016-12-19T14:15:35.591Z,-0.13
2016-12-19T14:16:44.279Z,-0.15
2016-12-19T14:17:52.969Z,-0.15
2016-12-19T14:19:01.693Z,-0.21
2016-12-19T14:20:10.387Z,-0.31
2016-12-19T14:21:19.101Z,-0.28
2016-12-19T14:22:27.789Z,-0.31
2016-12-19T14:23:36.473Z,-0.41
2016-12-19T14:24:45.155Z,-0.39
2016-12-19T14:25:53.844Z,-0.41
2016-12-19T14:27:02.537Z,-0.33
2016-12-19T14:28:11.230Z,-0.49
2016-12-19T14:29:19.923Z,-0.48
2016-12-19T14:30:28.614Z,-0.44
2016-12-19T14:31:37.314Z,-0.48
2016-12-19T14:32:46.003Z,-0.41
2016-12-19T14:33:54.695Z,-0.48
2016-12-19T14:35:03.387Z,-0.41
2016-12-19T14:36:41.913Z,-0.45
2016-12-19T14:37:50.599Z,-0.45
2016-12-19T14:38:59.290Z,-0.48
2016-12-19T14:40:07.976Z,-0.48
2016-12-19T14:41:16.667Z,-0.46
2016-12-19T14:42:25.360Z,-0.38
2016-12-19T14:43:34.054Z,-0.39
2016-12-19T14:44:42.740Z,-0.36
2016-12-19T14:45:51.432Z,-0.42
2016-12-19T14:47:00.120Z,-0.36
2016-12-19T14:48:08.810Z,-0.31
2016-12-19T14:49:17.497Z,-0.36
2016-12-19T14:50:26.191Z,-0.33
2016-12-19T14:51:34.906Z,-0.27
2016-12-19T14:52:43.593Z,-0.33
2016-12-19T14:53:52.288Z,-0.3
2016-12-19T14:55:01.293Z,-0.3
2016-12-19T14:56:10.008Z,-0.2